createdAt,value
2023-01-29T00:04:19.596Z,96.39
2023-01-29T00:09:17.746Z,96.41
2023-01-29T00:14:17.141Z,96.70
2023-01-29T00:19:15.100Z,96.64
2023-01-29T00:24:13.217Z,96.55
2023-01-29T00:29:11.215Z,96.52
2023-01-29T00:34:10.532Z,96.75
2023-01-29T00:39:11.110Z,96.61
2023-01-29T00:44:26.628Z,96.89
2023-01-29T00:49:26.036Z,96.78
2023-01-29T00:54:23.992Z,96.72
2023-01-29T00:59:22.217Z,97.50
2023-01-29T01:04:20.514Z,97.21
2023-01-29T01:09:37.516Z,96.73
2023-01-29T01:14:36.260Z,98.44
2023-01-29T01:19:35.061Z,98.16
2023-01-29T01:24:34.541Z,98.48
2023-01-29T01:29:32.851Z,98.54
2023-01-29T01:34:31.175Z,98.28
2023-01-29T01:39:29.112Z,99.00
2023-01-29T01:44:46.295Z,98.53
2023-01-29T01:49:46.265Z,97.86
2023-01-29T01:54:45.086Z,98.36
2023-01-29T01:59:44.662Z,97.95
2023-01-29T02:05:04.548Z,98.56
2023-01-29T02:10:11.617Z,98.35
2023-01-29T02:15:09.905Z,97.69
2023-01-29T02:20:13.094Z,98.30
2023-01-29T02:25:26.580Z,97.92
2023-01-29T02:30:29.804Z,97.69
2023-01-29T02:35:31.994Z,97.22
2023-01-29T02:40:31.779Z,96.95
2023-01-29T02:45:34.105Z,97.56
2023-01-29T02:50:34.370Z,97.61
2023-01-29T02:55:35.603Z,97.36
2023-01-29T03:00:37.756Z,97.49
2023-01-29T03:05:43.427Z,98.25
2023-01-29T03:10:45.331Z,98.35
2023-01-29T03:15:47.513Z,98.38
2023-01-29T03:21:04.423Z,97.51
2023-01-29T03:26:20.012Z,98.99
2023-01-29T03:31:37.265Z,99.61
2023-01-29T03:36:39.916Z,99.17
2023-01-29T03:41:39.775Z,98.68
2023-01-29T03:46:42.510Z,98.67
2023-01-29T03:51:47.924Z,98.44
2023-01-29T03:56:52.569Z,98.57
2023-01-29T04:01:54.154Z,98.52
2023-01-29T04:06:54.150Z,98.58
2023-01-29T04:11:55.701Z,98.28
2023-01-29T04:16:58.566Z,97.45
2023-01-29T04:22:14.226Z,99.15
2023-01-29T04:27:21.900Z,99.43
2023-01-29T04:32:28.218Z,98.77
2023-01-29T04:37:31.485Z,98.57
2023-01-29T04:42:32.651Z,97.99
2023-01-29T04:47:36.425Z,98.11
2023-01-29T04:52:38.135Z,98.03
2023-01-29T04:57:40.849Z,98.29
2023-01-29T05:02:41.328Z,98.19
2023-01-29T05:07:40.189Z,98.01
2023-01-29T05:12:39.354Z,97.96
2023-01-29T05:17:37.551Z,96.37
2023-01-29T05:22:38.668Z,97.49
2023-01-29T05:27:54.047Z,97.37
2023-01-29T05:32:51.895Z,97.48
2023-01-29T05:37:51.141Z,96.95
2023-01-29T05:42:48.980Z,97.31
2023-01-29T05:47:47.139Z,97.44
2023-01-29T05:52:45.145Z,96.78
2023-01-29T05:57:44.373Z,97.90
2023-01-29T06:02:42.231Z,97.57
2023-01-29T06:07:45.261Z,96.95
2023-01-29T06:12:44.944Z,97.67
2023-01-29T06:17:42.806Z,97.46
2023-01-29T06:22:40.663Z,97.28
2023-01-29T06:27:38.540Z,96.71
2023-01-29T06:32:37.909Z,97.28
2023-01-29T06:37:35.805Z,96.03
2023-01-29T06:42:35.911Z,96.02
2023-01-29T06:47:33.773Z,95.17
2023-01-29T06:52:33.127Z,94.04
2023-01-29T06:57:31.166Z,94.15
2023-01-29T07:02:29.200Z,95.04
2023-01-29T07:07:27.179Z,94.20
2023-01-29T07:12:26.466Z,92.93
2023-01-29T07:17:24.331Z,93.07
2023-01-29T07:22:22.250Z,93.55
2023-01-29T07:27:20.114Z,96.81
2023-01-29T07:32:19.400Z,94.95
2023-01-29T07:37:17.342Z,92.41
2023-01-29T07:42:15.346Z,95.04
2023-01-29T07:47:13.640Z,94.47
2023-01-29T07:52:13.710Z,94.74
2023-01-29T07:57:11.708Z,94.09
2023-01-29T08:02:10.137Z,92.59
2023-01-29T08:07:09.514Z,94.42
2023-01-29T08:12:08.995Z,93.30
2023-01-29T08:17:06.897Z,92.39
2023-01-29T08:22:04.881Z,92.19
2023-01-29T08:27:02.734Z,90.36
2023-01-29T08:32:02.014Z,89.20
2023-01-29T08:36:59.849Z,90.97
2023-01-29T08:41:57.831Z,90.27
2023-01-29T08:46:55.705Z,91.17
2023-01-29T08:51:56.948Z,91.18
2023-01-29T08:56:54.798Z,92.29
2023-01-29T09:01:52.593Z,90.94
2023-01-29T09:06:50.442Z,91.78
2023-01-29T09:11:49.689Z,92.11
2023-01-29T09:16:47.540Z,91.30
2023-01-29T09:21:45.414Z,94.01
2023-01-29T09:26:43.368Z,94.39
2023-01-29T09:31:42.661Z,92.15
2023-01-29T09:36:40.530Z,93.92
2023-01-29T09:41:46.243Z,92.45
2023-01-29T09:46:47.710Z,93.88
2023-01-29T09:51:47.844Z,93.63
2023-01-29T09:56:46.545Z,92.50
2023-01-29T10:01:51.709Z,91.96
2023-01-29T10:06:56.533Z,92.13
2023-01-29T10:11:59.300Z,91.09
2023-01-29T10:17:07.652Z,91.04
2023-01-29T10:22:14.303Z,91.11
2023-01-29T10:27:14.744Z,91.90
2023-01-29T10:32:16.633Z,90.56
2023-01-29T10:37:18.611Z,90.77
2023-01-29T10:42:21.203Z,90.42
2023-01-29T10:47:32.404Z,90.23
2023-01-29T10:52:36.494Z,90.16
2023-01-29T10:57:43.433Z,90.74
2023-01-29T11:02:46.652Z,91.02
2023-01-29T11:07:44.795Z,89.03
2023-01-29T11:12:43.917Z,90.58
2023-01-29T11:18:01.647Z,91.29
2023-01-29T11:23:00.839Z,91.19
2023-01-29T11:28:00.646Z,91.33
2023-01-29T11:33:07.006Z,90.89
2023-01-29T11:38:16.451Z,90.63
2023-01-29T11:43:21.853Z,90.82
2023-01-29T11:48:20.898Z,89.21
2023-01-29T11:53:25.095Z,91.20
2023-01-29T11:58:27.331Z,88.10
2023-01-29T12:03:31.338Z,90.42
2023-01-29T12:08:34.703Z,89.52
2023-01-29T12:13:32.557Z,90.84
2023-01-29T12:18:32.299Z,89.86
2023-01-29T12:23:36.434Z,90.55
2023-01-29T12:28:43.768Z,90.57
2023-01-29T12:33:44.755Z,91.49
2023-01-29T12:38:44.899Z,89.81
2023-01-29T12:43:46.259Z,89.92
2023-01-29T12:48:45.113Z,90.27
2023-01-29T12:53:48.476Z,91.54
2023-01-29T12:58:48.608Z,90.73
2023-01-29T13:03:51.013Z,91.69
2023-01-29T13:08:53.913Z,91.73
2023-01-29T13:13:54.465Z,92.04
2023-01-29T13:18:56.007Z,92.05
2023-01-29T13:23:57.897Z,93.01
2023-01-29T13:28:56.066Z,92.89
2023-01-29T13:33:55.172Z,92.93
2023-01-29T13:38:59.665Z,93.40
2023-01-29T13:43:57.618Z,92.62
2023-01-29T13:48:58.306Z,92.55
2023-01-29T13:53:58.382Z,92.16
2023-01-29T13:58:56.987Z,91.87
2023-01-29T14:04:04.877Z,92.83
2023-01-29T14:09:04.800Z,93.50
2023-01-29T14:14:02.670Z,92.76
2023-01-29T14:19:01.886Z,93.09
2023-01-29T14:24:00.437Z,92.71
2023-01-29T14:29:25.540Z,92.68
2023-01-29T14:34:31.811Z,93.49
2023-01-29T14:39:33.131Z,93.63
2023-01-29T14:44:49.427Z,92.98
2023-01-29T14:49:52.773Z,93.53
2023-01-29T14:54:52.127Z,93.72
2023-01-29T14:59:54.261Z,93.50
2023-01-29T15:04:55.441Z,92.32
2023-01-29T15:10:07.928Z,92.76
2023-01-29T15:15:17.824Z,93.14
2023-01-29T15:20:28.633Z,93.50
2023-01-29T15:25:26.823Z,93.79
2023-01-29T15:30:29.392Z,94.34
2023-01-29T15:35:30.435Z,93.48
2023-01-29T15:40:28.472Z,92.83
2023-01-29T15:45:29.282Z,93.98
2023-01-29T15:50:27.173Z,93.82
2023-01-29T15:55:27.636Z,93.41
2023-01-29T16:00:27.379Z,93.93
2023-01-29T16:05:26.879Z,93.58
2023-01-29T16:10:28.028Z,93.76
2023-01-29T16:15:31.610Z,95.13
2023-01-29T16:20:34.431Z,94.81
2023-01-29T16:25:35.721Z,92.89
2023-01-29T16:30:33.684Z,93.22
2023-01-29T16:35:31.870Z,91.86
2023-01-29T16:40:33.326Z,92.09
2023-01-29T16:45:32.787Z,91.96
2023-01-29T16:50:40.674Z,90.62
2023-01-29T16:55:46.995Z,90.94
2023-01-29T17:00:47.393Z,91.50
2023-01-29T17:05:45.628Z,90.53
2023-01-29T17:10:48.106Z,89.49
2023-01-29T17:15:47.835Z,89.69
2023-01-29T17:20:45.776Z,89.38
2023-01-29T17:25:43.929Z,89.27
2023-01-29T17:30:41.796Z,89.51
2023-01-29T17:35:42.372Z,89.79
2023-01-29T17:40:42.248Z,89.77
2023-01-29T17:45:40.175Z,89.80
2023-01-29T17:50:39.654Z,90.00
2023-01-29T17:55:38.891Z,89.92
2023-01-29T18:00:37.350Z,89.75
2023-01-29T18:05:35.299Z,89.78
2023-01-29T18:10:33.156Z,89.71
2023-01-29T18:15:32.397Z,89.87
2023-01-29T18:20:30.382Z,91.59
2023-01-29T18:25:28.231Z,91.98
2023-01-29T18:30:26.274Z,91.42
2023-01-29T18:35:26.056Z,92.33
2023-01-29T18:40:23.939Z,92.09
2023-01-29T18:45:21.797Z,91.59
2023-01-29T18:50:19.832Z,91.16
2023-01-29T18:55:19.249Z,90.48
2023-01-29T19:00:17.612Z,89.72
2023-01-29T19:05:17.040Z,89.01
2023-01-29T19:10:16.987Z,90.16
2023-01-29T19:15:20.674Z,90.81
2023-01-29T19:20:18.731Z,90.54
2023-01-29T19:25:17.804Z,90.48
2023-01-29T19:30:17.942Z,90.06
2023-01-29T19:35:16.175Z,90.62
2023-01-29T19:40:14.881Z,90.46
2023-01-29T19:45:12.817Z,90.15
2023-01-29T19:50:12.909Z,90.00
2023-01-29T19:55:10.989Z,90.14
2023-01-29T20:00:12.262Z,89.79
2023-01-29T20:05:12.136Z,89.98
2023-01-29T20:10:17.877Z,90.04
2023-01-29T20:15:16.484Z,89.31
2023-01-29T20:20:15.049Z,89.97
2023-01-29T20:25:16.800Z,89.93
2023-01-29T20:30:14.989Z,89.31
2023-01-29T20:35:12.947Z,88.45
2023-01-29T20:40:11.537Z,89.29
2023-01-29T20:45:11.929Z,90.85
2023-01-29T20:50:10.791Z,91.23
2023-01-29T20:55:10.082Z,91.35
2023-01-29T21:00:09.043Z,90.96
2023-01-29T21:05:08.617Z,90.48
2023-01-29T21:10:06.814Z,90.23
2023-01-29T21:15:04.842Z,90.47
2023-01-29T21:20:04.083Z,90.89
2023-01-29T21:25:03.372Z,92.52
2023-01-29T21:30:01.219Z,92.20
2023-01-29T21:34:59.013Z,92.42
2023-01-29T21:39:56.794Z,92.31
2023-01-29T21:44:55.964Z,92.24
2023-01-29T21:49:53.817Z,93.62
2023-01-29T21:54:51.633Z,92.08
2023-01-29T21:59:52.919Z,92.81
2023-01-29T22:05:05.317Z,92.97
2023-01-29T22:10:14.201Z,93.60
2023-01-29T22:15:12.890Z,93.21
2023-01-29T22:20:13.590Z,93.52
2023-01-29T22:25:11.795Z,93.70
2023-01-29T22:30:10.438Z,94.33
2023-01-29T22:35:08.668Z,94.06
2023-01-29T22:40:08.744Z,94.86
2023-01-29T22:45:06.998Z,94.12
2023-01-29T22:50:05.502Z,93.18
2023-01-29T22:55:03.314Z,92.63
2023-01-29T23:00:02.502Z,92.70
2023-01-29T23:05:00.338Z,95.58
2023-01-29T23:09:58.195Z,94.96
2023-01-29T23:14:56.081Z,96.14
2023-01-29T23:19:55.378Z,97.23
2023-01-29T23:24:53.184Z,99.15
2023-01-29T23:29:51.022Z,97.98
2023-01-29T23:34:49.006Z,100.00
2023-01-29T23:39:48.431Z,100.00
2023-01-29T23:44:46.237Z,100.00
2023-01-29T23:49:44.027Z,100.00
2023-01-29T23:54:41.871Z,100.00
2023-01-29T23:59:41.079Z,99.54
